Time;durP1;ratioP1;P1;durP2;ratioP2;P2;SDS_P1;SDS_P2;PMS_P1;PMS_P2;Temp;Humidity;BMP_temperature;BMP_pressure;BME280_temperature;BME280_humidity;BME280_pressure;Samples;Min_cycle;Max_cycle;Signal;HPM_P1;HPM_P2
2022/08/23 00:01:19;;;;;;;69.17;4.93;;;21.90;15.20;;;;;;5080783;28;20730;-82
2022/08/23 00:03:45;;;;;;;69.80;6.07;;;21.90;16.10;;;;;;5081198;28;20390;-81
2022/08/23 00:06:11;;;;;;;67.57;5.17;;;21.90;17.50;;;;;;5080526;28;20430;-81
2022/08/23 00:08:38;;;;;;;67.33;5.17;;;21.90;17.20;;;;;;5080786;28;20455;-81
2022/08/23 00:11:04;;;;;;;70.40;5.30;;;21.80;17.50;;;;;;5063059;28;20428;-81
2022/08/23 00:13:32;;;;;;;67.43;4.50;;;21.80;18.80;;;;;;5080748;28;20402;-81
2022/08/23 00:15:59;;;;;;;68.10;4.50;;;21.70;19.90;;;;;;5062609;28;20403;-81
2022/08/23 00:18:25;;;;;;;69.27;5.30;;;21.70;20.80;;;;;;5080685;28;20398;-81
2022/08/23 00:20:51;;;;;;;68.70;5.20;;;21.70;20.60;;;;;;5080941;28;20406;-81
2022/08/23 00:23:17;;;;;;;69.40;5.60;;;21.70;20.40;;;;;;5080692;28;20962;-81
2022/08/23 00:25:43;;;;;;;68.47;5.20;;;21.70;21.00;;;;;;5080349;28;20795;-81
2022/08/23 00:28:10;;;;;;;69.17;5.90;;;21.60;22.00;;;;;;5079906;28;20422;-81
2022/08/23 00:30:36;;;;;;;68.80;4.83;;;21.60;22.50;;;;;;5080252;28;20518;-81
2022/08/23 00:33:03;;;;;;;67.67;5.03;;;21.50;24.10;;;;;;5079651;28;20460;-82
2022/08/23 00:35:28;;;;;;;71.60;6.40;;;21.50;24.80;;;;;;5062041;28;20441;-81
2022/08/23 00:37:57;;;;;;;67.57;5.60;;;21.50;25.40;;;;;;5080762;28;20410;-81
2022/08/23 00:40:23;;;;;;;69.57;6.30;;;21.50;25.80;;;;;;5080395;28;20198;-84
2022/08/23 00:48:39;;;;;;;75.27;6.10;;;21.30;28.30;;;;;;5080155;28;20436;-81
2022/08/23 00:51:37;;;;;;;68.37;5.60;;;21.20;29.90;;;;;;5080017;28;20497;-82
2022/08/23 00:54:03;;;;;;;71.73;6.73;;;21.20;29.90;;;;;;5059017;28;20437;-81
2022/08/23 00:56:33;;;;;;;68.80;5.40;;;21.30;30.10;;;;;;5079646;28;20424;-81
2022/08/23 00:58:59;;;;;;;69.23;6.60;;;21.20;30.30;;;;;;5079944;28;20426;-81
2022/08/23 01:01:25;;;;;;;68.60;5.93;;;21.20;30.90;;;;;;5079532;28;20405;-84
2022/08/23 01:03:55;;;;;;;73.00;6.97;;;21.20;31.80;;;;;;5080763;28;20402;-82
2022/08/23 01:06:40;;;;;;;68.87;6.30;;;21.20;33.50;;;;;;5079420;28;20430;-81
2022/08/23 01:09:14;;;;;;;68.80;6.47;;;21.10;34.20;;;;;;5080009;28;20434;-81
2022/08/23 01:12:09;;;;;;;68.50;6.50;;;21.10;35.10;;;;;;5080100;28;20382;-82
2022/08/23 01:14:42;;;;;;;71.77;7.43;;;21.10;35.00;;;;;;5061511;28;20409;-81
2022/08/23 01:17:21;;;;;;;70.57;8.20;;;21.10;36.60;;;;;;5080207;28;20508;-81
2022/08/23 01:19:52;;;;;;;72.53;6.77;;;21.00;36.70;;;;;;5079817;28;20408;-81
2022/08/23 01:22:26;;;;;;;68.87;7.20;;;21.00;37.00;;;;;;5080053;28;20903;-81
2022/08/23 01:24:53;;;;;;;69.47;7.03;;;21.00;37.40;;;;;;5079189;28;20427;-81
2022/08/23 01:27:20;;;;;;;68.37;7.23;;;21.00;37.40;;;;;;5079844;28;20422;-81
2022/08/23 01:29:46;;;;;;;70.50;7.57;;;21.00;38.00;;;;;;5078932;28;20450;-81
2022/08/23 01:32:12;;;;;;;66.53;6.37;;;20.90;39.10;;;;;;5079021;28;20401;-81
2022/08/23 01:34:38;;;;;;;73.10;8.37;;;20.90;39.60;;;;;;5080601;28;20524;-84
2022/08/23 01:37:07;;;;;;;69.97;7.67;;;20.80;40.00;;;;;;5081727;28;20421;-84
2022/08/23 01:39:36;;;;;;;69.20;6.83;;;20.80;40.60;;;;;;5078983;28;20406;-83
2022/08/23 01:42:02;;;;;;;69.13;7.83;;;20.80;41.20;;;;;;5061408;28;20414;-84
2022/08/23 01:44:28;;;;;;;68.20;7.60;;;20.80;41.00;;;;;;5078694;28;20402;-84
2022/08/23 01:46:54;;;;;;;71.40;7.90;;;20.70;40.40;;;;;;5078889;28;20457;-83
2022/08/23 01:49:20;;;;;;;71.33;8.00;;;20.70;39.80;;;;;;5078839;28;20976;-84
2022/08/23 01:51:46;;;;;;;68.17;7.77;;;20.70;40.20;;;;;;5078936;28;20166;-84
2022/08/23 01:54:12;;;;;;;70.40;8.10;;;20.70;39.90;;;;;;5079448;28;20175;-84
2022/08/23 01:56:40;;;;;;;68.00;7.77;;;20.70;41.10;;;;;;5079138;28;20524;-83
2022/08/23 01:59:10;;;;;;;70.20;7.57;;;20.60;40.90;;;;;;5078416;28;20408;-83
2022/08/23 02:01:37;;;;;;;68.27;8.20;;;20.60;42.90;;;;;;5078652;28;20396;-84
2022/08/23 02:04:04;;;;;;;69.77;9.50;;;20.60;43.10;;;;;;5079607;28;20402;-84
2022/08/23 02:06:30;;;;;;;71.30;9.60;;;20.60;43.60;;;;;;5060784;28;20437;-84
2022/08/23 02:09:03;;;;;;;70.90;9.77;;;20.60;44.40;;;;;;5061134;28;20833;-83
2022/08/23 02:11:32;;;;;;;71.23;9.77;;;20.50;45.40;;;;;;5078962;28;20391;-84
2022/08/23 02:14:01;;;;;;;72.40;12.20;;;20.50;46.20;;;;;;5078670;28;20397;-83
2022/08/23 02:16:34;;;;;;;70.90;9.60;;;20.50;46.30;;;;;;5078222;28;20422;-84
2022/08/23 02:19:02;;;;;;;70.17;8.43;;;20.50;46.30;;;;;;5078125;28;20401;-83
2022/08/23 02:21:30;;;;;;;69.70;9.77;;;20.50;45.40;;;;;;5078814;28;20460;-83
2022/08/23 02:23:58;;;;;;;71.30;10.00;;;20.50;44.40;;;;;;5078475;28;20418;-83
2022/08/23 02:26:23;;;;;;;71.97;11.13;;;20.40;46.20;;;;;;5060650;28;20432;-83
2022/08/23 02:28:51;;;;;;;70.20;11.57;;;20.40;46.20;;;;;;5078225;28;20414;-84
2022/08/23 02:31:17;;;;;;;72.47;10.67;;;20.40;46.90;;;;;;5078657;28;20164;-84
2022/08/23 02:33:42;;;;;;;71.50;12.20;;;20.40;47.20;;;;;;5078620;28;20908;-84
2022/08/23 02:36:08;;;;;;;69.97;11.67;;;20.30;48.00;;;;;;5079169;28;20426;-84
2022/08/23 02:38:34;;;;;;;70.47;11.80;;;20.30;48.10;;;;;;5079021;28;20294;-84
2022/08/23 02:41:00;;;;;;;74.20;12.00;;;20.20;49.70;;;;;;5078119;28;20629;-83
2022/08/23 02:43:26;;;;;;;70.23;12.17;;;20.20;50.20;;;;;;5060337;28;20185;-83
2022/08/23 02:45:52;;;;;;;70.03;11.67;;;20.20;50.60;;;;;;5078696;28;20186;-83
2022/08/23 02:48:18;;;;;;;72.20;11.77;;;20.10;50.70;;;;;;5078170;28;20784;-83
2022/08/23 02:50:43;;;;;;;71.63;13.10;;;20.10;52.30;;;;;;5078483;28;20555;-84
2022/08/23 02:53:09;;;;;;;72.20;13.00;;;20.10;52.60;;;;;;5078515;28;20406;-84
2022/08/23 02:55:35;;;;;;;73.67;14.07;;;20.10;51.20;;;;;;5078758;28;20187;-84
2022/08/23 02:58:01;;;;;;;70.97;12.10;;;20.10;51.50;;;;;;5078207;28;20262;-84
2022/08/23 03:00:27;;;;;;;70.10;12.77;;;20.10;52.60;;;;;;5079267;28;20618;-84
2022/08/23 03:02:53;;;;;;;72.73;12.90;;;20.10;52.60;;;;;;5078835;28;20169;-84
2022/08/23 03:05:19;;;;;;;72.30;14.13;;;20.10;51.30;;;;;;5078809;28;20401;-84
2022/08/23 03:07:45;;;;;;;75.07;13.93;;;20.10;52.70;;;;;;5078421;28;20432;-84
2022/08/23 03:10:11;;;;;;;71.23;13.87;;;20.00;53.70;;;;;;5081233;28;20190;-84
2022/08/23 03:12:37;;;;;;;73.77;12.87;;;20.00;54.70;;;;;;5082136;28;20209;-83
2022/08/23 03:15:05;;;;;;;71.27;14.63;;;20.00;54.40;;;;;;5082597;28;20396;-84
2022/08/23 03:17:31;;;;;;;69.57;12.03;;;20.00;53.60;;;;;;5081767;28;20451;-84
2022/08/23 03:19:57;;;;;;;72.40;13.27;;;20.00;54.90;;;;;;5063960;28;20951;-83
2022/08/23 03:22:23;;;;;;;72.53;13.30;;;19.90;55.20;;;;;;5082247;28;20450;-84
2022/08/23 03:24:48;;;;;;;72.23;12.23;;;19.90;55.20;;;;;;5082776;28;20163;-84
2022/08/23 03:27:14;;;;;;;70.50;12.13;;;19.90;54.50;;;;;;5082240;28;20434;-84
2022/08/23 03:29:40;;;;;;;72.90;12.27;;;19.90;56.40;;;;;;5081788;28;20193;-83
2022/08/23 03:32:06;;;;;;;68.33;10.60;;;19.80;56.60;;;;;;5081836;28;20221;-83
2022/08/23 03:34:32;;;;;;;73.20;11.07;;;19.80;58.20;;;;;;5174826;22;20485;-82
2022/08/23 03:36:58;;;;;;;73.70;12.03;;;19.80;59.10;;;;;;5074447;28;20435;-83
2022/08/23 03:39:25;;;;;;;70.40;10.80;;;19.80;58.60;;;;;;5091225;28;20905;-82
2022/08/23 03:41:50;;;;;;;70.40;10.70;;;19.80;59.30;;;;;;5092041;28;20916;-82
2022/08/23 03:44:16;;;;;;;71.80;11.37;;;19.80;59.00;;;;;;5092033;28;20429;-82
2022/08/23 03:46:42;;;;;;;68.77;10.80;;;19.80;58.00;;;;;;5092180;28;20643;-82
2022/08/23 03:49:07;;;;;;;71.83;11.10;;;19.80;57.90;;;;;;5091515;28;20570;-83
2022/08/23 03:51:33;;;;;;;73.97;10.93;;;19.70;59.70;;;;;;5091637;28;20158;-82
2022/08/23 03:54:02;;;;;;;70.90;9.43;;;19.70;60.30;;;;;;5074475;28;20167;-82
2022/08/23 03:56:32;;;;;;;73.00;9.93;;;19.60;60.40;;;;;;5073190;28;20219;-82
2022/08/23 03:58:59;;;;;;;72.87;10.40;;;19.60;63.20;;;;;;5073147;28;20410;-82
2022/08/23 04:01:25;;;;;;;70.40;9.70;;;19.50;63.20;;;;;;5091537;28;20408;-82
2022/08/23 04:03:51;;;;;;;74.00;11.00;;;19.50;62.10;;;;;;5072791;28;20424;-82
2022/08/23 04:06:17;;;;;;;74.77;10.67;;;19.50;61.40;;;;;;5091030;28;20176;-82
2022/08/23 04:08:44;;;;;;;70.40;8.83;;;19.50;61.90;;;;;;5091609;28;20160;-82
2022/08/23 04:11:12;;;;;;;70.80;10.20;;;19.50;63.40;;;;;;5074104;28;20416;-82
2022/08/23 04:13:41;;;;;;;73.30;8.70;;;19.50;62.10;;;;;;5091019;28;20402;-83
2022/08/23 04:16:08;;;;;;;71.57;9.70;;;19.40;62.20;;;;;;5073161;28;20425;-83
2022/08/23 04:18:33;;;;;;;69.80;9.33;;;19.40;60.90;;;;;;5090811;28;20421;-82
2022/08/23 04:21:01;;;;;;;74.03;10.33;;;19.40;61.50;;;;;;5090510;28;20404;-83
2022/08/23 04:23:27;;;;;;;72.70;10.10;;;19.30;63.90;;;;;;5091010;28;20174;-82
2022/08/23 04:25:54;;;;;;;70.77;9.97;;;19.30;65.20;;;;;;5090806;28;20919;-82
2022/08/23 04:28:23;;;;;;;71.13;11.27;;;19.30;63.10;;;;;;5091400;28;20218;-82
2022/08/23 04:30:53;;;;;;;72.50;10.80;;;19.30;61.90;;;;;;5072952;28;20449;-82
2022/08/23 04:33:18;;;;;;;73.93;9.27;;;19.20;64.70;;;;;;5072600;28;20431;-82
2022/08/23 04:35:44;;;;;;;68.07;9.93;;;19.20;66.90;;;;;;5090251;28;20715;-82
2022/08/23 04:38:11;;;;;;;70.97;11.10;;;19.20;65.70;;;;;;5072702;28;20195;-82
2022/08/23 04:43:21;;;;;;;71.17;10.70;;;19.20;65.20;;;;;;5091023;28;20401;-83
2022/08/23 04:45:47;;;;;;;70.87;9.20;;;19.20;66.10;;;;;;5091180;28;20812;-82
2022/08/23 04:48:13;;;;;;;70.00;9.23;;;19.10;67.20;;;;;;5072339;28;20172;-83
2022/08/23 04:50:41;;;;;;;70.80;11.13;;;19.10;66.90;;;;;;5091262;28;20967;-83
2022/08/23 04:53:10;;;;;;;69.40;9.17;;;19.20;65.90;;;;;;5074211;28;20168;-82
2022/08/23 04:55:36;;;;;;;74.13;10.23;;;19.20;64.70;;;;;;5091689;28;20386;-83
2022/08/23 04:58:04;;;;;;;71.37;10.87;;;19.20;65.90;;;;;;5072092;28;20529;-82
2022/08/23 05:00:29;;;;;;;70.20;10.77;;;19.20;64.60;;;;;;5090850;28;20406;-83
2022/08/23 05:02:55;;;;;;;69.17;10.60;;;19.20;64.60;;;;;;5090256;28;20475;-82
2022/08/23 05:05:21;;;;;;;71.03;11.27;;;19.20;64.10;;;;;;5089885;28;20164;-83
2022/08/23 05:07:47;;;;;;;73.23;11.37;;;19.20;66.20;;;;;;5089560;28;20247;-82
2022/08/23 05:10:14;;;;;;;68.90;10.90;;;19.10;66.60;;;;;;5090248;28;20184;-82
2022/08/23 05:12:41;;;;;;;69.97;10.50;;;19.20;65.40;;;;;;5089820;28;20456;-83
2022/08/23 05:15:08;;;;;;;70.33;10.50;;;19.20;67.00;;;;;;5071878;28;20411;-82
2022/08/23 05:17:35;;;;;;;71.40;11.03;;;19.10;68.20;;;;;;5089220;28;20831;-83
2022/08/23 05:20:01;;;;;;;75.47;10.80;;;19.20;68.80;;;;;;5089432;28;20773;-82
2022/08/23 05:22:27;;;;;;;77.27;11.63;;;19.20;69.60;;;;;;5089680;28;20403;-82
2022/08/23 05:24:53;;;;;;;77.70;11.53;;;19.20;68.80;;;;;;5089134;28;20418;-82
2022/08/23 05:27:18;;;;;;;70.80;14.00;;;19.30;70.50;;;;;;5088977;28;20446;-82
2022/08/23 05:29:45;;;;;;;72.27;12.60;;;19.20;73.10;;;;;;5071929;28;20280;-82
2022/08/23 05:32:10;;;;;;;78.20;13.40;;;19.30;72.90;;;;;;5070367;28;20166;-83
2022/08/23 05:34:39;;;;;;;74.60;13.13;;;19.30;73.80;;;;;;5089043;28;20424;-83
2022/08/23 05:37:05;;;;;;;72.73;12.17;;;19.40;73.60;;;;;;5071369;28;20185;-82
2022/08/23 05:39:30;;;;;;;76.50;13.30;;;19.50;73.50;;;;;;5089843;28;20421;-82
2022/08/23 05:41:56;;;;;;;73.13;11.37;;;19.50;75.60;;;;;;5088801;28;20172;-82
2022/08/23 05:44:22;;;;;;;74.00;16.33;;;19.50;74.80;;;;;;5071497;28;20195;-82
2022/08/23 05:46:48;;;;;;;77.00;15.13;;;19.60;75.80;;;;;;5088619;28;20196;-82
2022/08/23 05:49:13;;;;;;;75.97;16.03;;;19.70;78.00;;;;;;5088317;28;20209;-82
2022/08/23 05:51:40;;;;;;;76.57;16.93;;;19.60;80.90;;;;;;5070731;28;20414;-83
2022/08/23 05:54:08;;;;;;;74.50;15.13;;;19.70;78.20;;;;;;5089106;28;20166;-82
2022/08/23 05:56:37;;;;;;;79.50;15.40;;;19.70;78.20;;;;;;5071461;28;20451;-82
2022/08/23 05:59:06;;;;;;;79.80;12.77;;;19.70;75.70;;;;;;5072907;28;20441;-83
2022/08/23 06:01:33;;;;;;;73.93;9.60;;;19.80;73.30;;;;;;5090221;28;20404;-83
2022/08/23 06:04:03;;;;;;;76.10;10.87;;;19.80;69.60;;;;;;5089460;28;20411;-83
2022/08/23 06:06:32;;;;;;;77.87;12.33;;;20.10;62.30;;;;;;5071047;28;20427;-83
2022/08/23 06:08:58;;;;;;;75.03;10.90;;;20.10;55.20;;;;;;5088989;28;20417;-83
2022/08/23 06:11:26;;;;;;;80.47;12.27;;;20.20;49.00;;;;;;5088558;28;20421;-82
2022/08/23 06:13:55;;;;;;;76.77;11.47;;;20.30;45.00;;;;;;5089844;28;20404;-83
2022/08/23 06:16:28;;;;;;;71.27;10.87;;;20.40;44.60;;;;;;5071444;28;20426;-82
2022/08/23 06:18:56;;;;;;;78.60;10.67;;;20.50;43.90;;;;;;5071644;28;20391;-82
2022/08/23 06:21:22;;;;;;;77.20;9.63;;;20.60;41.40;;;;;;5089318;28;20400;-82
2022/08/23 06:23:49;;;;;;;73.30;11.17;;;20.70;36.50;;;;;;5089439;28;20395;-82
2022/08/23 06:26:22;;;;;;;77.70;8.93;;;20.80;38.50;;;;;;5089674;28;20418;-82
2022/08/23 06:28:50;;;;;;;71.27;8.80;;;20.90;37.90;;;;;;5090509;28;20387;-82
2022/08/23 06:31:44;;;;;;;71.60;7.93;;;20.90;39.00;;;;;;5089437;28;20749;-82
2022/08/23 06:34:03;;;;;;;76.43;10.23;;;21.00;38.60;;;;;;5088852;28;20452;-82
2022/08/23 06:36:29;;;;;;;73.30;9.83;;;21.00;43.90;;;;;;5070515;28;20957;-82
2022/08/23 06:38:55;;;;;;;76.60;11.53;;;21.10;43.50;;;;;;5071580;28;20164;-82
2022/08/23 06:41:20;;;;;;;73.93;12.03;;;21.20;43.70;;;;;;5088985;28;20466;-82
2022/08/23 06:43:46;;;;;;;74.23;9.13;;;21.30;41.40;;;;;;5089073;28;20182;-82
2022/08/23 06:46:19;;;;;;;71.30;7.77;;;21.30;36.70;;;;;;5088480;28;20262;-82
2022/08/23 06:48:49;;;;;;;71.87;9.63;;;21.30;35.20;;;;;;5071092;28;20600;-82
2022/08/23 06:51:28;;;;;;;80.03;9.20;;;21.30;36.10;;;;;;5070883;28;20407;-82
2022/08/23 06:53:56;;;;;;;70.70;7.23;;;21.40;30.90;;;;;;5071394;28;20402;-82
2022/08/23 06:56:24;;;;;;;81.00;8.63;;;21.50;25.10;;;;;;5070708;28;20439;-83
2022/08/23 06:58:51;;;;;;;73.00;8.13;;;21.60;26.90;;;;;;5088914;28;20402;-83
2022/08/23 07:01:35;;;;;;;73.87;7.27;;;21.60;24.10;;;;;;5088634;28;20908;-83
2022/08/23 07:04:04;;;;;;;70.93;6.90;;;21.60;25.20;;;;;;5071221;28;20400;-83
2022/08/23 07:06:29;;;;;;;75.60;7.03;;;21.70;23.80;;;;;;5087560;28;20418;-82
2022/08/23 07:08:58;;;;;;;71.30;7.30;;;21.70;23.60;;;;;;5069884;28;20407;-83
2022/08/23 07:11:25;;;;;;;70.90;6.40;;;21.70;24.10;;;;;;5087658;28;20535;-82
2022/08/23 07:14:06;;;;;;;70.60;6.47;;;21.60;20.20;;;;;;5087768;28;20428;-82
2022/08/23 07:16:42;;;;;;;71.50;7.53;;;21.60;18.90;;;;;;5070657;28;20425;-82
2022/08/23 07:19:07;;;;;;;72.27;7.13;;;21.50;19.50;;;;;;5087996;28;20772;-82
2022/08/23 07:21:34;;;;;;;69.93;6.40;;;21.60;22.70;;;;;;5087815;28;20408;-82
2022/08/23 07:23:59;;;;;;;76.87;7.33;;;21.70;18.90;;;;;;5070605;28;20418;-82
2022/08/23 07:26:25;;;;;;;71.70;6.10;;;21.80;17.30;;;;;;5070258;28;20460;-82
2022/08/23 07:28:51;;;;;;;79.40;6.70;;;21.80;15.20;;;;;;5070598;28;20180;-82
2022/08/23 07:31:25;;;;;;;69.87;6.37;;;21.80;13.80;;;;;;5069783;28;20226;-82
2022/08/23 07:33:52;;;;;;;75.17;7.60;;;21.80;15.30;;;;;;5088535;28;20180;-82
2022/08/23 07:36:21;;;;;;;74.33;7.60;;;21.80;14.40;;;;;;5087703;28;20418;-83
2022/08/23 07:38:48;;;;;;;75.27;7.87;;;21.80;15.40;;;;;;5088214;28;20797;-83
2022/08/23 07:41:16;;;;;;;71.87;7.63;;;21.80;12.90;;;;;;5088087;28;20404;-82
2022/08/23 07:43:42;;;;;;;70.47;6.73;;;21.80;14.80;;;;;;5088101;28;20411;-83
2022/08/23 07:46:12;;;;;;;71.67;6.90;;;21.90;16.00;;;;;;5070296;28;20445;-82
2022/08/23 07:48:38;;;;;;;76.30;7.57;;;22.00;15.30;;;;;;5071017;28;20481;-83
2022/08/23 07:51:09;;;;;;;75.50;7.83;;;22.10;13.60;;;;;;5087733;28;20446;-83
2022/08/23 07:53:35;;;;;;;71.70;7.13;;;22.10;12.80;;;;;;5070160;28;20405;-82
2022/08/23 07:56:09;;;;;;;73.50;7.47;;;22.10;9.60;;;;;;5088289;28;20394;-82
2022/08/23 07:58:35;;;;;;;80.90;7.23;;;22.10;10.10;;;;;;5072975;28;20398;-82
2022/08/23 08:01:17;;;;;;;77.07;8.40;;;22.20;10.20;;;;;;5073328;28;20414;-81
2022/08/23 08:03:45;;;;;;;76.53;6.83;;;22.20;7.90;;;;;;5073903;28;20190;-82
2022/08/23 08:06:18;;;;;;;77.47;7.00;;;22.20;8.60;;;;;;5074490;28;20474;-82
2022/08/23 08:08:45;;;;;;;71.13;7.43;;;22.30;7.80;;;;;;5073530;28;20394;-82
2022/08/23 08:11:13;;;;;;;71.33;6.93;;;22.40;7.90;;;;;;5090890;28;20402;-83
2022/08/23 08:13:40;;;;;;;73.30;6.57;;;22.40;8.00;;;;;;5091081;28;20440;-83
2022/08/23 08:16:08;;;;;;;71.73;7.20;;;22.40;8.50;;;;;;5091507;28;20391;-82
2022/08/23 08:18:35;;;;;;;76.50;7.20;;;22.40;7.10;;;;;;5073006;28;20398;-82
2022/08/23 08:21:03;;;;;;;74.87;7.20;;;22.50;7.80;;;;;;5091353;28;20390;-83
2022/08/23 08:23:34;;;;;;;79.23;7.70;;;22.70;5.90;;;;;;5091452;28;20394;-82
2022/08/23 08:26:05;;;;;;;73.17;7.47;;;22.80;3.40;;;;;;5073269;28;20924;-82
2022/08/23 08:28:32;;;;;;;76.90;6.77;;;22.80;1.00;;;;;;5091290;28;20784;-82
2022/08/23 08:30:58;;;;;;;78.70;7.10;;;22.80;1.00;;;;;;5091457;28;20437;-83
2022/08/23 08:33:30;;;;;;;76.40;7.00;;;23.00;1.80;;;;;;5090713;28;20410;-83
2022/08/23 08:35:58;;;;;;;75.87;5.73;;;23.00;1.00;;;;;;5073453;28;20406;-82
2022/08/23 08:38:24;;;;;;;72.10;5.83;;;23.00;1.00;;;;;;5073076;28;20418;-83
2022/08/23 08:41:01;;;;;;;75.70;6.50;;;23.10;1.00;;;;;;5072622;28;20463;-82
2022/08/23 08:43:35;;;;;;;73.00;7.17;;;23.00;1.00;;;;;;5073319;28;20424;-83
2022/08/23 08:46:06;;;;;;;71.33;6.30;;;23.10;1.00;;;;;;5073098;28;20451;-82
2022/08/23 08:48:56;;;;;;;80.87;6.60;;;23.10;1.00;;;;;;5072849;28;20425;-83
2022/08/23 08:51:52;;;;;;;68.37;5.90;;;23.20;1.00;;;;;;5072695;28;20402;-82
2022/08/23 08:54:23;;;;;;;74.13;6.40;;;23.30;1.00;;;;;;5090136;28;20383;-83
2022/08/23 08:56:56;;;;;;;69.63;6.00;;;23.40;1.00;;;;;;5071919;28;20505;-83
2022/08/23 08:59:34;;;;;;;74.50;6.10;;;23.50;1.00;;;;;;5072682;28;20406;-83
2022/08/23 09:02:14;;;;;;;73.30;5.80;;;23.60;1.00;;;;;;5072469;28;20410;-83
2022/08/23 09:04:40;;;;;;;72.77;6.33;;;23.70;1.00;;;;;;5090115;28;20903;-82
2022/08/23 09:07:37;;;;;;;72.47;6.17;;;23.70;1.00;;;;;;5071743;28;20422;-82
2022/08/23 09:10:24;;;;;;;71.20;5.90;;;23.80;1.00;;;;;;5089589;28;20180;-82
2022/08/23 09:13:15;;;;;;;72.87;5.27;;;24.00;1.00;;;;;;5089578;28;20379;-83
2022/08/23 09:16:07;;;;;;;71.10;4.77;;;24.00;1.00;;;;;;5072137;28;20471;-83
2022/08/23 09:18:35;;;;;;;70.40;5.70;;;24.10;1.00;;;;;;5072623;28;20391;-83
2022/08/23 09:21:02;;;;;;;67.30;5.03;;;24.10;1.00;;;;;;5089699;28;20918;-83
2022/08/23 09:23:41;;;;;;;73.57;5.07;;;24.20;1.00;;;;;;5071976;28;20419;-83
2022/08/23 09:26:23;;;;;;;71.87;5.50;;;24.30;1.00;;;;;;5089929;28;20382;-82
2022/08/23 09:29:15;;;;;;;70.90;5.60;;;24.40;1.00;;;;;;5089712;28;20389;-82
2022/08/23 09:31:51;;;;;;;72.93;5.30;;;24.60;1.00;;;;;;5070825;28;20483;-83
2022/08/23 09:34:29;;;;;;;74.07;7.13;;;24.80;1.00;;;;;;5071140;28;20979;-83
2022/08/23 09:37:08;;;;;;;71.97;7.00;;;24.90;1.00;;;;;;5089394;28;20449;-82
2022/08/23 09:39:37;;;;;;;69.47;6.43;;;24.90;1.00;;;;;;5088682;28;20471;-82
2022/08/23 09:42:08;;;;;;;70.63;5.77;;;25.10;1.00;;;;;;5088804;28;20399;-83
2022/08/23 09:44:41;;;;;;;73.30;5.20;;;25.20;1.00;;;;;;5071778;28;20483;-82
2022/08/23 09:47:15;;;;;;;73.00;5.43;;;25.30;1.00;;;;;;5088789;28;20487;-83
2022/08/23 09:49:46;;;;;;;72.30;4.67;;;25.30;1.00;;;;;;5088854;28;20442;-83
2022/08/23 09:52:20;;;;;;;68.80;4.07;;;25.40;1.00;;;;;;5088683;28;20388;-82
2022/08/23 09:55:05;;;;;;;71.37;4.47;;;25.50;1.00;;;;;;5070252;28;20402;-82
2022/08/23 09:57:33;;;;;;;71.27;4.93;;;25.60;1.00;;;;;;5070522;28;20431;-82
2022/08/23 10:00:23;;;;;;;74.20;4.67;;;25.80;1.00;;;;;;5088815;28;20408;-83
2022/08/23 10:02:50;;;;;;;72.73;4.47;;;25.90;1.00;;;;;;5071482;28;20396;-82
2022/08/23 10:05:26;;;;;;;68.50;4.20;;;26.10;1.00;;;;;;5070379;28;20420;-82
2022/08/23 10:08:01;;;;;;;72.23;4.17;;;26.30;1.00;;;;;;5070105;28;20438;-83
2022/08/23 10:10:33;;;;;;;70.33;4.60;;;26.40;1.00;;;;;;5070239;28;20977;-82
2022/08/23 10:12:59;;;;;;;71.83;4.93;;;26.60;1.00;;;;;;5087895;28;20516;-83
2022/08/23 10:15:40;;;;;;;73.60;4.03;;;26.70;1.00;;;;;;5070595;28;20411;-82
2022/08/23 10:18:17;;;;;;;71.50;4.07;;;26.80;1.00;;;;;;5088401;28;20913;-81
2022/08/23 10:21:15;;;;;;;70.17;3.70;;;27.00;1.00;;;;;;5069825;28;20437;-81
2022/08/23 10:24:02;;;;;;;68.90;4.10;;;27.10;1.00;;;;;;5067574;28;20473;-80
2022/08/23 10:26:31;;;;;;;67.27;3.40;;;27.30;1.00;;;;;;5070014;28;20453;-80
2022/08/23 10:29:36;;;;;;;77.10;4.60;;;27.50;1.00;;;;;;5087926;28;20403;-81
2022/08/23 10:32:28;;;;;;;67.77;3.57;;;27.60;1.00;;;;;;5069682;28;20474;-81
2022/08/23 10:35:13;;;;;;;72.63;4.27;;;27.90;1.00;;;;;;5069064;28;20458;-82
2022/08/23 10:38:25;;;;;;;68.07;4.10;;;28.10;1.00;;;;;;5069130;28;20998;-81
2022/08/23 10:40:59;;;;;;;70.10;4.37;;;28.20;1.00;;;;;;5069476;28;20410;-81
2022/08/23 10:43:38;;;;;;;74.57;4.17;;;28.30;1.00;;;;;;5070036;28;20422;-81
2022/08/23 10:46:06;;;;;;;69.37;2.90;;;28.50;1.00;;;;;;5087578;28;20416;-81
2022/08/23 10:48:55;;;;;;;69.70;3.70;;;28.80;1.00;;;;;;5087437;28;20413;-81
2022/08/23 10:51:28;;;;;;;69.93;4.00;;;28.90;1.00;;;;;;5069684;28;20493;-81
2022/08/23 10:54:08;;;;;;;71.23;3.80;;;28.90;1.00;;;;;;5069378;28;20397;-80
2022/08/23 10:56:35;;;;;;;74.40;4.40;;;28.70;1.00;;;;;;5087815;28;20418;-80
2022/08/23 10:59:17;;;;;;;71.67;4.33;;;28.80;1.00;;;;;;5087751;28;20395;-80
2022/08/23 11:01:58;;;;;;;69.50;4.90;;;28.90;1.00;;;;;;5070123;28;20429;-80
2022/08/23 11:04:52;;;;;;;70.23;4.80;;;29.30;1.00;;;;;;5069477;28;20462;-80
2022/08/23 11:07:28;;;;;;;72.20;4.77;;;29.40;1.00;;;;;;5069406;28;20502;-81
2022/08/23 11:10:12;;;;;;;70.63;5.13;;;29.70;1.00;;;;;;5070158;28;20809;-81
2022/08/23 11:12:52;;;;;;;69.40;4.50;;;29.70;1.00;;;;;;5087967;28;20378;-81
2022/08/23 11:15:45;;;;;;;68.27;3.10;;;30.00;1.00;;;;;;5087822;28;20402;-81
2022/08/23 11:18:33;;;;;;;67.60;2.93;;;29.90;1.00;;;;;;5069183;28;20442;-81
2022/08/23 11:21:22;;;;;;;71.00;2.83;;;29.80;1.00;;;;;;5087925;28;20410;-81
2022/08/23 11:23:57;;;;;;;68.80;3.33;;;29.40;1.00;;;;;;5076053;28;20497;-81
2022/08/23 11:26:30;;;;;;;68.40;3.10;;;29.40;1.00;;;;;;5069540;28;20440;-80
2022/08/23 11:29:17;;;;;;;76.93;3.77;;;29.60;1.00;;;;;;5069620;28;20419;-81
2022/08/23 11:32:01;;;;;;;72.50;4.23;;;29.90;1.00;;;;;;5070882;28;20410;-82
2022/08/23 11:34:59;;;;;;;70.70;3.53;;;30.30;1.00;;;;;;5073159;28;20426;-82
2022/08/23 11:37:30;;;;;;;69.57;4.27;;;30.50;1.00;;;;;;5071420;28;20441;-80
2022/08/23 11:39:58;;;;;;;70.77;4.50;;;30.80;1.00;;;;;;5091079;28;20420;-82
2022/08/23 11:42:30;;;;;;;69.97;4.47;;;30.90;1.00;;;;;;5091692;28;20465;-81
2022/08/23 11:44:56;;;;;;;67.50;3.60;;;31.00;1.00;;;;;;5091627;28;20375;-82
2022/08/23 11:47:28;;;;;;;70.93;4.30;;;31.20;1.00;;;;;;5072413;28;20430;-82
2022/08/23 11:50:23;;;;;;;70.77;4.33;;;31.00;1.00;;;;;;5090463;28;20472;-82
2022/08/23 11:53:18;;;;;;;69.80;4.30;;;30.70;1.00;;;;;;5090791;28;20734;-81
2022/08/23 11:56:03;;;;;;;69.00;4.27;;;30.70;1.00;;;;;;5090933;28;20380;-81
2022/08/23 11:58:54;;;;;;;68.77;4.23;;;30.80;1.00;;;;;;5090875;28;20405;-81
2022/08/23 12:01:40;;;;;;;70.63;3.80;;;30.90;1.00;;;;;;5090416;28;20386;-81
2022/08/23 12:04:13;;;;;;;67.07;3.93;;;30.70;1.00;;;;;;5073498;28;20397;-81
2022/08/23 12:06:45;;;;;;;72.77;4.70;;;30.40;1.00;;;;;;5073214;28;20414;-81
2022/08/23 12:09:40;;;;;;;69.87;4.87;;;30.30;1.00;;;;;;5072810;28;20406;-81
2022/08/23 12:12:22;;;;;;;68.63;4.50;;;30.00;1.00;;;;;;5066957;28;20414;-81
2022/08/23 12:14:53;;;;;;;67.07;3.90;;;29.80;1.00;;;;;;5073182;28;20406;-81
2022/08/23 12:17:24;;;;;;;71.07;4.57;;;29.80;1.00;;;;;;5073391;28;20433;-81
2022/08/23 12:20:09;;;;;;;70.67;4.57;;;29.80;1.00;;;;;;5073369;28;20409;-81
2022/08/23 12:23:02;;;;;;;69.63;5.43;;;29.70;1.00;;;;;;5090569;28;20436;-81
2022/08/23 12:25:30;;;;;;;69.30;4.00;;;29.60;1.00;;;;;;5090970;28;20387;-83
2022/08/23 12:28:28;;;;;;;68.30;3.97;;;29.20;1.00;;;;;;5090272;28;20426;-83
2022/08/23 12:31:00;;;;;;;68.50;4.00;;;29.00;1.00;;;;;;5072110;28;20547;-83
2022/08/23 12:33:28;;;;;;;67.00;3.70;;;29.00;1.00;;;;;;5071080;28;20438;-81
2022/08/23 12:36:25;;;;;;;68.30;3.77;;;29.30;1.00;;;;;;5072130;28;20403;-80
2022/08/23 12:39:05;;;;;;;71.97;4.10;;;29.50;1.00;;;;;;5073499;28;20398;-80
2022/08/23 12:41:47;;;;;;;68.90;4.53;;;29.80;1.00;;;;;;5073423;28;20386;-81
2022/08/23 12:44:20;;;;;;;70.13;4.20;;;30.00;1.00;;;;;;5072149;28;20406;-81
2022/08/23 12:46:47;;;;;;;70.40;4.00;;;29.90;1.00;;;;;;5072214;28;20434;-81
2022/08/23 12:49:31;;;;;;;72.53;3.90;;;30.00;1.00;;;;;;5090398;28;20483;-81
2022/08/23 12:52:00;;;;;;;72.00;5.17;;;30.00;1.00;;;;;;5090583;28;20421;-81
2022/08/23 12:54:36;;;;;;;71.17;4.67;;;30.20;1.00;;;;;;5072201;28;20766;-81
2022/08/23 12:57:08;;;;;;;71.47;4.07;;;30.30;1.00;;;;;;5090525;28;20489;-81
2022/08/23 12:59:39;;;;;;;69.47;4.00;;;30.20;1.00;;;;;;5090621;28;20467;-81
2022/08/23 13:02:29;;;;;;;70.77;3.73;;;30.10;1.00;;;;;;5088991;28;20383;-81
2022/08/23 13:05:01;;;;;;;69.00;3.57;;;29.70;1.00;;;;;;5089592;28;20414;-81
2022/08/23 13:07:28;;;;;;;73.93;3.93;;;29.70;1.00;;;;;;5090417;28;20426;-81
2022/08/23 13:09:55;;;;;;;69.57;4.10;;;29.70;1.00;;;;;;5072546;28;20454;-81